Time;durP1;ratioP1;P1;durP2;ratioP2;P2;SDS_P1;SDS_P2;PMS_P1;PMS_P2;Temp;Humidity;BMP_temperature;BMP_pressure;BME280_temperature;BME280_humidity;BME280_pressure;Samples;Min_cycle;Max_cycle;Signal;HPM_P1;HPM_P2
2022/05/05 00:02:20;;;;;;;2.93;2.30;;;19.40;53.30;;;;;;5101077;28;20472;-48
2022/05/05 00:04:48;;;;;;;2.20;2.00;;;19.40;53.30;;;;;;5076843;28;20805;-48
2022/05/05 00:07:16;;;;;;;2.20;2.00;;;19.40;53.40;;;;;;5085251;28;20485;-48
2022/05/05 00:09:45;;;;;;;2.13;1.93;;;19.40;53.40;;;;;;5102935;28;20823;-48
2022/05/05 00:14:58;;;;;;;3.00;2.47;;;19.40;53.50;;;;;;5081340;28;20931;-48
2022/05/05 00:17:28;;;;;;;1.73;1.63;;;19.40;53.50;;;;;;5082460;28;20484;-48
2022/05/05 00:19:56;;;;;;;3.23;2.27;;;19.40;53.50;;;;;;5066927;28;20993;-45
2022/05/05 00:22:24;;;;;;;3.20;2.40;;;19.40;53.60;;;;;;5089908;28;20540;-48
2022/05/05 00:24:54;;;;;;;3.27;2.57;;;19.40;53.60;;;;;;5080287;28;20555;-49
2022/05/05 00:27:22;;;;;;;2.77;2.20;;;19.40;53.50;;;;;;5097810;28;20877;-46
2022/05/05 00:29:51;;;;;;;2.27;2.07;;;19.40;53.60;;;;;;5099326;28;20434;-48
2022/05/05 00:32:19;;;;;;;2.40;2.20;;;19.40;53.70;;;;;;5102165;28;20829;-47
2022/05/05 00:34:49;;;;;;;2.77;2.57;;;19.40;53.60;;;;;;5099883;28;20435;-47
2022/05/05 00:37:17;;;;;;;3.73;2.20;;;19.40;53.70;;;;;;5081164;28;20528;-47
2022/05/05 00:39:45;;;;;;;2.80;2.00;;;19.40;53.70;;;;;;5082715;28;20948;-47
2022/05/05 00:42:15;;;;;;;3.93;2.40;;;19.40;53.70;;;;;;5073988;28;20466;-48
2022/05/05 00:44:44;;;;;;;3.07;2.87;;;19.40;53.70;;;;;;5081479;28;20920;-48
2022/05/05 00:47:16;;;;;;;3.20;1.97;;;19.40;54.90;;;;;;5082970;28;20531;-47
2022/05/05 00:49:49;;;;;;;2.47;2.27;;;19.40;53.70;;;;;;5075885;28;20448;-48
2022/05/05 00:52:18;;;;;;;2.23;2.00;;;19.40;53.70;;;;;;5084415;28;20492;-48
2022/05/05 00:54:46;;;;;;;3.60;2.13;;;19.40;53.70;;;;;;5099462;28;20528;-46
2022/05/05 00:57:15;;;;;;;2.13;1.93;;;19.40;53.70;;;;;;5077880;28;20533;-48
2022/05/05 00:59:44;;;;;;;1.93;1.83;;;19.40;54.10;;;;;;5082500;28;20435;-47
2022/05/05 01:02:13;;;;;;;2.63;2.17;;;19.40;53.90;;;;;;5085913;28;20534;-47
2022/05/05 01:04:42;;;;;;;2.37;1.87;;;19.40;54.10;;;;;;5099904;28;21000;-47
2022/05/05 01:07:12;;;;;;;2.03;1.83;;;19.40;54.00;;;;;;5075644;28;20568;-47
2022/05/05 01:09:40;;;;;;;2.10;1.90;;;19.40;54.00;;;;;;5086504;28;20530;-48
2022/05/05 01:12:09;;;;;;;2.40;2.13;;;19.30;53.90;;;;;;5083143;28;20998;-48
2022/05/05 01:14:39;;;;;;;2.60;2.30;;;19.30;53.90;;;;;;5085305;28;20493;-45
2022/05/05 01:17:08;;;;;;;2.60;2.30;;;19.40;54.00;;;;;;5086887;28;20463;-48
2022/05/05 01:19:36;;;;;;;2.23;2.03;;;19.30;53.90;;;;;;5079079;28;20436;-46
2022/05/05 01:22:06;;;;;;;2.77;2.30;;;19.30;53.80;;;;;;5084756;28;20550;-48
2022/05/05 01:30:27;;;;;;;2.40;2.10;;;19.30;53.80;;;;;;5086389;28;20782;-47
2022/05/05 01:33:15;;;;;;;2.80;2.60;;;19.30;53.90;;;;;;5088274;28;20469;-47
2022/05/05 01:36:00;;;;;;;2.20;2.03;;;19.30;54.00;;;;;;5078346;28;20526;-48
2022/05/05 01:38:36;;;;;;;2.30;2.10;;;19.30;54.00;;;;;;5083368;28;20987;-49
2022/05/05 01:41:06;;;;;;;2.17;1.97;;;19.30;54.10;;;;;;5074024;28;20472;-48
2022/05/05 01:43:34;;;;;;;3.30;2.00;;;19.30;54.10;;;;;;5081003;28;20526;-47
2022/05/05 01:46:03;;;;;;;2.53;2.17;;;19.20;54.10;;;;;;5082967;28;20918;-47
2022/05/05 01:48:32;;;;;;;2.63;2.43;;;19.30;54.30;;;;;;5086355;28;20923;-47
2022/05/05 01:51:01;;;;;;;2.23;2.00;;;19.30;54.20;;;;;;5106328;28;20893;-49
2022/05/05 01:53:36;;;;;;;2.90;2.40;;;19.30;54.30;;;;;;5069640;28;20964;-48
2022/05/05 01:56:09;;;;;;;2.17;1.97;;;19.30;54.30;;;;;;5069143;28;21051;-46
2022/05/05 01:58:38;;;;;;;2.13;1.90;;;19.20;54.30;;;;;;5085719;28;20438;-48
2022/05/05 02:01:07;;;;;;;2.30;1.77;;;19.20;54.50;;;;;;5084633;28;20517;-48
2022/05/05 02:03:36;;;;;;;1.87;1.67;;;19.20;54.40;;;;;;5085399;28;20913;-46
2022/05/05 02:06:04;;;;;;;1.73;1.63;;;19.20;54.50;;;;;;5062483;28;20833;-47
2022/05/05 02:08:34;;;;;;;2.60;2.03;;;19.20;54.50;;;;;;5085124;28;20517;-46
2022/05/05 02:11:02;;;;;;;3.43;2.60;;;19.20;54.50;;;;;;5083369;28;20946;-47
2022/05/05 02:13:30;;;;;;;3.10;2.47;;;19.20;54.30;;;;;;5085045;28;20470;-46
2022/05/05 02:15:59;;;;;;;2.67;2.47;;;19.20;55.60;;;;;;5083626;28;20520;-46
2022/05/05 02:18:27;;;;;;;2.93;2.60;;;19.20;54.30;;;;;;5082333;28;20449;-48
2022/05/05 02:20:56;;;;;;;2.17;2.07;;;19.20;54.30;;;;;;5080011;28;20436;-47
2022/05/05 02:23:24;;;;;;;2.10;2.00;;;19.20;54.30;;;;;;5097136;28;20912;-46
2022/05/05 02:25:57;;;;;;;2.70;2.50;;;19.20;54.40;;;;;;5080781;28;20986;-46
2022/05/05 02:28:26;;;;;;;3.57;2.30;;;19.20;54.50;;;;;;5071459;28;20433;-48
2022/05/05 02:31:12;;;;;;;3.07;2.80;;;19.20;54.50;;;;;;5088465;28;20521;-46
2022/05/05 02:33:43;;;;;;;3.30;2.73;;;19.20;54.50;;;;;;5089651;28;20470;-47
2022/05/05 02:38:57;;;;;;;2.50;2.30;;;19.20;54.70;;;;;;5084420;28;20444;-47
2022/05/05 02:41:26;;;;;;;4.63;2.50;;;19.20;54.70;;;;;;5075068;28;20472;-46
2022/05/05 02:43:54;;;;;;;2.07;1.90;;;19.20;54.70;;;;;;5084234;28;20453;-48
2022/05/05 02:46:25;;;;;;;2.30;2.03;;;19.20;54.50;;;;;;5060892;28;20468;-47
2022/05/05 02:48:53;;;;;;;2.83;2.60;;;19.20;54.60;;;;;;5097861;28;20443;-47
2022/05/05 02:51:21;;;;;;;2.57;2.37;;;19.10;54.60;;;;;;5075601;28;20469;-46
2022/05/05 02:56:36;;;;;;;2.50;2.30;;;19.10;54.60;;;;;;5079938;28;20477;-46
2022/05/05 02:59:04;;;;;;;3.63;2.53;;;19.10;54.60;;;;;;5088806;28;20497;-47
2022/05/05 03:01:35;;;;;;;2.30;2.10;;;19.10;54.70;;;;;;5083837;28;20477;-46
2022/05/05 03:04:03;;;;;;;3.40;2.67;;;19.10;54.70;;;;;;5080256;28;20527;-47
2022/05/05 03:06:31;;;;;;;3.30;3.00;;;19.10;54.80;;;;;;5074959;28;20464;-47
2022/05/05 03:08:59;;;;;;;2.60;2.23;;;19.10;54.80;;;;;;5084555;28;20453;-46
2022/05/05 03:11:27;;;;;;;2.67;2.47;;;19.10;54.80;;;;;;5083428;28;20450;-46
2022/05/05 03:13:56;;;;;;;3.17;2.60;;;19.10;54.80;;;;;;5084217;28;20462;-47
2022/05/05 03:16:25;;;;;;;2.47;2.27;;;19.10;54.80;;;;;;5066663;28;20477;-49
2022/05/05 03:18:53;;;;;;;2.70;2.50;;;19.10;54.90;;;;;;5084485;28;20496;-49
2022/05/05 03:21:21;;;;;;;2.20;1.80;;;19.10;54.90;;;;;;5064287;28;20521;-48
2022/05/05 03:23:49;;;;;;;2.03;1.83;;;19.10;54.90;;;;;;5093889;28;20430;-46
2022/05/05 03:26:17;;;;;;;3.37;2.70;;;19.10;55.00;;;;;;5078070;28;20482;-47
2022/05/05 03:28:45;;;;;;;3.33;2.30;;;19.10;55.00;;;;;;5063753;28;20748;-47
2022/05/05 03:31:14;;;;;;;2.57;2.37;;;19.10;54.90;;;;;;5063625;28;21027;-47
2022/05/05 03:33:45;;;;;;;2.57;2.37;;;19.10;55.00;;;;;;5063218;28;20466;-48
2022/05/05 03:36:13;;;;;;;4.70;2.70;;;19.00;54.90;;;;;;5096012;28;21040;-46
2022/05/05 03:38:41;;;;;;;4.10;2.67;;;19.00;55.00;;;;;;5104136;28;20942;-48
2022/05/05 03:41:09;;;;;;;3.07;2.43;;;19.00;54.90;;;;;;5081435;28;20517;-46
2022/05/05 03:43:39;;;;;;;3.07;2.87;;;19.00;54.90;;;;;;5045243;28;20459;-46
2022/05/05 03:46:07;;;;;;;4.00;2.93;;;19.00;55.00;;;;;;5062443;28;20464;-47
2022/05/05 03:48:36;;;;;;;2.43;2.27;;;19.00;55.10;;;;;;5081805;28;20449;-48
2022/05/05 03:51:06;;;;;;;3.00;2.80;;;19.00;55.10;;;;;;5092371;28;20455;-45
2022/05/05 03:53:34;;;;;;;5.67;2.70;;;19.00;55.10;;;;;;5088667;28;20458;-48
2022/05/05 03:56:04;;;;;;;3.63;2.70;;;19.00;55.60;;;;;;5089662;28;20453;-45
2022/05/05 03:58:32;;;;;;;2.37;2.17;;;19.00;55.10;;;;;;5103405;28;20422;-45
2022/05/05 04:01:00;;;;;;;2.93;2.53;;;19.00;55.30;;;;;;5094649;28;20423;-46
2022/05/05 04:03:31;;;;;;;2.50;2.30;;;19.00;55.40;;;;;;5083558;28;20842;-46
2022/05/05 04:06:04;;;;;;;2.87;2.60;;;19.00;55.40;;;;;;5080565;28;20634;-47
2022/05/05 04:08:33;;;;;;;3.23;2.77;;;19.00;55.40;;;;;;5095737;28;20874;-47
2022/05/05 04:11:02;;;;;;;3.10;2.80;;;19.00;55.40;;;;;;5091322;28;20447;-47
2022/05/05 04:13:30;;;;;;;2.80;2.50;;;19.00;55.30;;;;;;5083655;28;20488;-44
2022/05/05 04:15:58;;;;;;;2.63;2.23;;;19.00;55.30;;;;;;5097040;28;20947;-48
2022/05/05 04:18:30;;;;;;;3.50;2.77;;;18.90;55.20;;;;;;5084738;28;20887;-47
2022/05/05 04:20:58;;;;;;;3.60;2.77;;;18.90;55.20;;;;;;5089660;28;20950;-48
2022/05/05 04:23:29;;;;;;;2.63;2.40;;;18.90;55.20;;;;;;5081268;28;20469;-46
2022/05/05 04:26:10;;;;;;;2.80;2.50;;;18.90;55.30;;;;;;5080409;28;20454;-48
2022/05/05 04:28:38;;;;;;;3.07;2.77;;;18.90;55.40;;;;;;5082565;28;20661;-46
2022/05/05 04:31:07;;;;;;;3.20;2.90;;;18.90;55.40;;;;;;5081550;28;20512;-47
2022/05/05 04:33:35;;;;;;;2.50;2.30;;;18.90;55.40;;;;;;5082799;28;20835;-48
2022/05/05 04:36:03;;;;;;;2.37;2.03;;;18.90;55.40;;;;;;5077831;28;20487;-48
2022/05/05 04:38:33;;;;;;;3.40;2.40;;;18.90;55.40;;;;;;5086811;28;20522;-46
2022/05/05 04:41:01;;;;;;;2.37;2.17;;;18.90;55.40;;;;;;5084691;28;20507;-47
2022/05/05 04:43:29;;;;;;;4.53;2.93;;;18.90;55.40;;;;;;5087162;28;20477;-48
2022/05/05 04:45:57;;;;;;;3.00;2.70;;;18.90;55.40;;;;;;5085273;28;20997;-48
2022/05/05 04:48:25;;;;;;;3.03;2.60;;;18.90;55.40;;;;;;5085778;28;20433;-48
2022/05/05 04:50:54;;;;;;;3.77;3.00;;;18.90;55.50;;;;;;5089585;28;20438;-47
2022/05/05 04:53:22;;;;;;;3.10;2.83;;;18.80;55.40;;;;;;5106514;28;20449;-47
2022/05/05 04:55:51;;;;;;;3.83;3.10;;;18.80;55.40;;;;;;5095739;28;20466;-46
2022/05/05 04:58:24;;;;;;;3.33;3.03;;;18.80;55.50;;;;;;5085824;28;20426;-48
2022/05/05 05:00:53;;;;;;;3.97;2.70;;;18.80;55.50;;;;;;5085343;28;20465;-47
2022/05/05 05:03:35;;;;;;;4.23;2.93;;;18.80;55.50;;;;;;5094386;28;20979;-47
2022/05/05 05:06:05;;;;;;;2.90;2.60;;;18.80;55.50;;;;;;5074398;28;20484;-49
2022/05/05 05:08:34;;;;;;;2.83;2.63;;;18.80;55.50;;;;;;5087017;28;20514;-47
2022/05/05 05:11:03;;;;;;;2.60;2.40;;;18.80;55.60;;;;;;5080146;28;20989;-46
2022/05/05 05:13:31;;;;;;;5.00;2.70;;;18.80;55.60;;;;;;5086282;28;20441;-49
2022/05/05 05:15:59;;;;;;;3.70;2.83;;;18.80;55.70;;;;;;5083352;28;20504;-49
2022/05/05 05:18:28;;;;;;;2.43;2.23;;;18.80;55.80;;;;;;5084338;28;21048;-48
2022/05/05 05:20:56;;;;;;;3.20;2.90;;;18.80;55.60;;;;;;5096290;28;20535;-46
2022/05/05 05:23:25;;;;;;;3.03;2.83;;;18.80;55.70;;;;;;5105242;28;20965;-48
2022/05/05 05:25:53;;;;;;;2.87;2.40;;;18.80;55.70;;;;;;5068887;28;20587;-45
2022/05/05 05:28:23;;;;;;;5.13;2.30;;;18.80;55.80;;;;;;5085888;28;20438;-47
2022/05/05 05:30:51;;;;;;;3.30;3.00;;;18.80;55.80;;;;;;5086102;28;20433;-48
2022/05/05 05:33:20;;;;;;;4.10;3.60;;;18.70;55.60;;;;;;5089257;28;20445;-47
2022/05/05 05:35:48;;;;;;;2.90;2.43;;;18.80;55.80;;;;;;5104824;28;20502;-48
2022/05/05 05:38:19;;;;;;;3.80;3.13;;;18.80;55.80;;;;;;5105969;28;20467;-47
2022/05/05 05:40:48;;;;;;;3.70;2.87;;;18.80;55.80;;;;;;5093421;28;20544;-47
2022/05/05 05:43:16;;;;;;;2.73;2.53;;;18.80;55.80;;;;;;5105622;28;21008;-48
2022/05/05 05:45:46;;;;;;;3.40;3.10;;;18.80;55.80;;;;;;5088572;28;20481;-48
2022/05/05 05:48:14;;;;;;;2.93;2.63;;;18.70;55.70;;;;;;5090135;28;20441;-48
2022/05/05 05:50:42;;;;;;;3.30;3.00;;;18.70;55.80;;;;;;5071569;28;20498;-48
2022/05/05 05:53:11;;;;;;;3.67;3.20;;;18.80;55.90;;;;;;5047630;28;20817;-48
2022/05/05 05:55:39;;;;;;;2.83;2.63;;;18.80;55.90;;;;;;5064716;28;20514;-48
2022/05/05 05:58:07;;;;;;;3.47;2.60;;;18.80;55.90;;;;;;5081590;28;20472;-47
2022/05/05 06:00:35;;;;;;;2.77;2.50;;;18.80;56.00;;;;;;5070452;28;20435;-47
2022/05/05 06:05:50;;;;;;;2.90;2.40;;;18.70;55.90;;;;;;5066675;28;20434;-47
2022/05/05 06:08:19;;;;;;;3.40;2.33;;;18.70;56.00;;;;;;5084526;28;20425;-47
2022/05/05 06:10:47;;;;;;;3.40;2.70;;;18.80;56.10;;;;;;5082689;28;20456;-46
2022/05/05 06:13:15;;;;;;;2.77;2.57;;;18.80;56.00;;;;;;5088433;28;20932;-48
2022/05/05 06:15:43;;;;;;;3.30;3.00;;;18.80;56.20;;;;;;5078977;28;20466;-48
2022/05/05 06:18:13;;;;;;;3.23;2.93;;;18.80;56.20;;;;;;5084813;28;20536;-48
2022/05/05 06:20:41;;;;;;;3.20;2.83;;;18.70;56.00;;;;;;5082031;28;20450;-48
2022/05/05 06:23:09;;;;;;;3.60;2.87;;;18.70;56.20;;;;;;5068549;28;20795;-47
2022/05/05 06:25:38;;;;;;;3.13;2.83;;;18.80;56.10;;;;;;5069525;28;20561;-48
2022/05/05 06:28:06;;;;;;;3.03;2.77;;;18.70;56.10;;;;;;5075115;28;20505;-47
2022/05/05 06:30:34;;;;;;;3.63;2.70;;;18.70;56.20;;;;;;5069458;28;20426;-47
2022/05/05 06:33:02;;;;;;;3.53;2.73;;;18.70;56.20;;;;;;5084108;28;20470;-50
2022/05/05 06:35:31;;;;;;;2.90;2.70;;;18.70;56.20;;;;;;5076644;28;20999;-48
2022/05/05 06:38:00;;;;;;;4.30;3.47;;;18.70;56.20;;;;;;5065798;28;20500;-47
2022/05/05 06:40:28;;;;;;;3.43;3.10;;;18.70;56.20;;;;;;5080040;28;20446;-48
2022/05/05 06:42:56;;;;;;;3.93;3.53;;;18.70;56.20;;;;;;5080889;28;20864;-46
2022/05/05 06:45:26;;;;;;;3.50;3.20;;;18.70;56.40;;;;;;5083126;28;20466;-47
2022/05/05 06:47:54;;;;;;;5.70;4.83;;;18.70;56.30;;;;;;5062784;28;21426;-47
2022/05/05 06:50:23;;;;;;;6.53;5.33;;;18.70;56.20;;;;;;5068820;28;20763;-46
2022/05/05 06:52:52;;;;;;;5.60;3.87;;;18.70;56.00;;;;;;5083110;28;20501;-46
2022/05/05 06:55:20;;;;;;;5.10;4.60;;;18.70;56.10;;;;;;5092155;28;20553;-45
2022/05/05 06:57:48;;;;;;;4.23;3.83;;;18.70;56.00;;;;;;5079728;28;20820;-47
2022/05/05 07:00:17;;;;;;;5.87;4.70;;;18.70;56.00;;;;;;5104588;28;20490;-47
2022/05/05 07:02:45;;;;;;;5.77;4.97;;;18.70;56.00;;;;;;5096634;28;20806;-47
2022/05/05 07:05:27;;;;;;;9.90;6.03;;;18.70;55.90;;;;;;5100961;28;20451;-46
2022/05/05 07:07:56;;;;;;;4.77;4.10;;;18.70;55.90;;;;;;5103498;28;20519;-47
2022/05/05 07:13:12;;;;;;;8.00;5.70;;;18.70;55.80;;;;;;5076391;28;20658;-47
2022/05/05 07:15:40;;;;;;;5.53;3.93;;;18.70;55.70;;;;;;5082630;28;20472;-48
2022/05/05 07:18:08;;;;;;;6.03;4.67;;;18.80;55.90;;;;;;5083214;28;20464;-49
2022/05/05 07:20:36;;;;;;;7.50;4.87;;;18.70;55.80;;;;;;5081847;28;20457;-48
2022/05/05 07:23:07;;;;;;;6.03;3.67;;;18.70;55.70;;;;;;5083010;28;20518;-48
2022/05/05 07:25:35;;;;;;;5.50;3.93;;;18.80;55.90;;;;;;5082668;28;20458;-47
2022/05/05 07:28:03;;;;;;;4.40;4.00;;;18.80;55.90;;;;;;5055984;28;20998;-48
2022/05/05 07:30:31;;;;;;;4.17;3.30;;;18.80;55.90;;;;;;5063905;28;20430;-45
2022/05/05 07:32:59;;;;;;;4.20;3.80;;;18.80;55.90;;;;;;5062588;28;20481;-47
2022/05/05 07:35:27;;;;;;;4.07;3.70;;;18.80;55.80;;;;;;5082043;28;20461;-46
2022/05/05 07:37:56;;;;;;;4.43;3.87;;;18.80;55.80;;;;;;5075130;28;20459;-48
2022/05/05 07:40:25;;;;;;;3.83;3.47;;;18.80;55.70;;;;;;5070573;28;20490;-47
2022/05/05 07:42:53;;;;;;;4.23;3.90;;;18.80;55.70;;;;;;5078738;28;20470;-47
2022/05/05 07:45:22;;;;;;;5.13;4.40;;;18.80;55.70;;;;;;5081806;28;20518;-48
2022/05/05 07:47:51;;;;;;;4.40;3.63;;;18.80;55.60;;;;;;5082777;28;20509;-46
2022/05/05 07:50:19;;;;;;;4.00;3.40;;;18.80;55.60;;;;;;5077175;28;20611;-47
2022/05/05 07:52:47;;;;;;;4.50;3.27;;;18.80;55.80;;;;;;5082606;28;20580;-45
2022/05/05 07:55:15;;;;;;;4.20;3.90;;;18.80;55.60;;;;;;5074509;28;21051;-46
2022/05/05 07:57:47;;;;;;;4.60;4.20;;;18.80;55.70;;;;;;5082905;28;20469;-47
2022/05/05 08:00:16;;;;;;;4.50;4.10;;;18.80;55.70;;;;;;5083419;28;20431;-45
2022/05/05 08:02:44;;;;;;;4.63;3.50;;;18.80;55.70;;;;;;5082522;28;21055;-48
2022/05/05 08:05:13;;;;;;;3.63;3.20;;;18.80;55.80;;;;;;5069785;28;20487;-46
2022/05/05 08:07:42;;;;;;;3.47;2.90;;;18.80;55.80;;;;;;5062207;28;20494;-47
2022/05/05 08:10:11;;;;;;;3.80;3.40;;;18.80;55.90;;;;;;5065386;28;20535;-47
2022/05/05 08:12:40;;;;;;;3.30;3.00;;;18.70;55.80;;;;;;5065183;28;20474;-45
2022/05/05 08:15:10;;;;;;;4.33;3.30;;;18.80;55.90;;;;;;5073079;28;20463;-46
2022/05/05 08:17:39;;;;;;;4.80;3.37;;;18.80;55.90;;;;;;5080865;28;21057;-47
2022/05/05 08:20:09;;;;;;;2.67;2.47;;;18.80;56.00;;;;;;5073235;28;20492;-46
2022/05/05 08:22:37;;;;;;;3.87;3.13;;;18.80;55.90;;;;;;5084170;28;20762;-49
2022/05/05 08:30:40;;;;;;;2.50;2.23;;;18.80;56.00;;;;;;5087286;28;20500;-47
2022/05/05 08:33:08;;;;;;;2.90;2.57;;;18.80;56.00;;;;;;5097729;28;20551;-47
2022/05/05 08:35:36;;;;;;;4.80;2.50;;;18.80;55.90;;;;;;5081165;28;20517;-47
2022/05/05 08:38:04;;;;;;;2.40;2.20;;;18.80;56.00;;;;;;5080012;28;20710;-46
2022/05/05 08:40:35;;;;;;;2.53;2.33;;;18.80;56.00;;;;;;5084103;28;20462;-48
2022/05/05 08:43:05;;;;;;;4.53;2.97;;;18.80;56.00;;;;;;5078707;28;20462;-47
2022/05/05 08:45:33;;;;;;;3.70;3.40;;;18.80;56.00;;;;;;5081776;28;20492;-47
2022/05/05 08:48:07;;;;;;;5.17;3.10;;;18.80;56.10;;;;;;5081727;28;20465;-48
2022/05/05 08:50:37;;;;;;;2.40;2.20;;;18.80;56.00;;;;;;5074970;28;20872;-47
2022/05/05 08:53:07;;;;;;;3.30;2.77;;;18.80;56.00;;;;;;5083065;28;20483;-47
2022/05/05 08:55:36;;;;;;;3.00;2.80;;;18.80;56.10;;;;;;5089420;28;20462;-46
2022/05/05 08:58:04;;;;;;;2.97;2.70;;;18.80;56.00;;;;;;5064726;28;20479;-46
2022/05/05 09:00:33;;;;;;;4.40;2.67;;;18.80;56.00;;;;;;5102165;28;20667;-47
2022/05/05 09:03:04;;;;;;;2.87;2.60;;;18.80;56.00;;;;;;5081383;28;20859;-47
2022/05/05 09:05:49;;;;;;;3.20;2.70;;;18.80;56.10;;;;;;5073968;28;20469;-47
2022/05/05 09:08:28;;;;;;;2.93;2.73;;;18.80;56.10;;;;;;5082090;28;20461;-47
2022/05/05 09:10:58;;;;;;;2.90;2.60;;;18.80;56.10;;;;;;5080575;28;20437;-46
2022/05/05 09:13:28;;;;;;;2.53;2.33;;;18.80;56.20;;;;;;5082900;28;20461;-47
2022/05/05 09:15:57;;;;;;;3.00;2.20;;;18.80;56.20;;;;;;5094707;28;20465;-46
2022/05/05 09:18:28;;;;;;;3.00;2.50;;;18.80;56.20;;;;;;5082608;28;20445;-46
2022/05/05 09:20:58;;;;;;;3.20;2.90;;;18.80;56.20;;;;;;5079251;28;21369;-46
2022/05/05 09:23:34;;;;;;;2.40;2.20;;;18.80;56.20;;;;;;5083218;28;20418;-45
2022/05/05 09:26:05;;;;;;;3.13;2.33;;;18.80;56.20;;;;;;5072222;28;20477;-49
2022/05/05 09:28:35;;;;;;;4.70;2.70;;;18.80;56.20;;;;;;5095043;28;20915;-46
2022/05/05 09:31:06;;;;;;;2.87;2.57;;;18.80;56.10;;;;;;5107259;28;20509;-46
2022/05/05 09:33:42;;;;;;;3.40;2.77;;;18.70;56.20;;;;;;5104350;28;20932;-45
2022/05/05 09:36:11;;;;;;;2.57;2.37;;;18.80;56.20;;;;;;5104312;28;20559;-46
2022/05/05 09:38:53;;;;;;;2.70;2.50;;;18.80;56.10;;;;;;5106762;28;20413;-47
2022/05/05 09:41:22;;;;;;;2.43;2.23;;;18.80;56.20;;;;;;5080376;28;20869;-48
2022/05/05 09:43:53;;;;;;;3.07;2.77;;;18.80;56.10;;;;;;5066323;28;20449;-47
2022/05/05 09:46:31;;;;;;;3.53;3.23;;;18.80;56.20;;;;;;5074555;28;20480;-46
2022/05/05 09:49:09;;;;;;;2.67;2.47;;;18.80;56.20;;;;;;5107618;28;20452;-47
2022/05/05 09:51:41;;;;;;;4.17;3.00;;;18.80;56.20;;;;;;5087653;28;20512;-46
2022/05/05 09:59:49;;;;;;;3.00;2.23;;;18.70;56.10;;;;;;5085716;28;20842;-47
2022/05/05 10:05:16;;;;;;;2.70;2.50;;;18.80;56.10;;;;;;5080811;28;20469;-47
2022/05/05 10:07:45;;;;;;;2.80;2.60;;;18.80;56.10;;;;;;5076976;28;20897;-46
2022/05/05 10:10:17;;;;;;;2.37;2.17;;;18.80;56.10;;;;;;5078019;28;20484;-47
2022/05/05 10:12:46;;;;;;;2.90;2.70;;;18.80;56.10;;;;;;5078304;28;20477;-47
2022/05/05 10:15:15;;;;;;;3.10;2.43;;;18.80;56.20;;;;;;5083464;28;20445;-48
2022/05/05 10:17:45;;;;;;;3.30;3.00;;;18.80;56.10;;;;;;5075313;28;20594;-48
2022/05/05 10:20:14;;;;;;;2.80;2.60;;;18.70;56.00;;;;;;5075274;28;20479;-48
2022/05/05 10:22:52;;;;;;;2.53;2.33;;;18.80;56.10;;;;;;5083804;28;20530;-48
2022/05/05 10:25:26;;;;;;;2.37;2.17;;;18.80;56.00;;;;;;5080001;28;20541;-47
2022/05/05 10:27:55;;;;;;;2.77;2.57;;;18.80;56.10;;;;;;5076225;28;20465;-48
2022/05/05 10:30:35;;;;;;;2.67;2.47;;;18.80;56.20;;;;;;5058827;28;20432;-46
2022/05/05 10:33:05;;;;;;;2.80;2.50;;;18.80;56.20;;;;;;5066272;28;20504;-49
2022/05/05 10:35:47;;;;;;;2.37;2.27;;;18.80;56.20;;;;;;5083193;28;20541;-47
2022/05/05 10:38:39;;;;;;;2.53;2.33;;;18.80;56.20;;;;;;5073237;28;20638;-48
2022/05/05 10:41:39;;;;;;;3.10;2.80;;;18.80;56.30;;;;;;5068995;28;20564;-48
2022/05/05 10:44:26;;;;;;;2.63;2.43;;;18.80;56.20;;;;;;5082852;28;20939;-46
2022/05/05 10:46:56;;;;;;;2.80;2.60;;;18.80;56.20;;;;;;5086605;28;20477;-47
2022/05/05 10:49:48;;;;;;;3.77;2.80;;;18.80;56.20;;;;;;5083877;28;20439;-47
2022/05/05 10:52:31;;;;;;;3.30;2.70;;;18.80;56.20;;;;;;5064668;28;20527;-47
2022/05/05 10:55:25;;;;;;;5.10;3.93;;;18.80;56.20;;;;;;5072709;28;20439;-47
2022/05/05 10:58:31;;;;;;;4.20;2.87;;;18.80;55.90;;;;;;5082399;28;20521;-46
2022/05/05 11:00:59;;;;;;;3.03;2.70;;;18.80;55.90;;;;;;5101333;28;20982;-44
2022/05/05 11:03:28;;;;;;;3.27;2.97;;;18.80;56.10;;;;;;5096987;28;20520;-48
2022/05/05 11:06:16;;;;;;;2.73;2.53;;;18.80;56.10;;;;;;5078534;28;21051;-48
2022/05/05 11:08:54;;;;;;;3.23;2.97;;;18.80;56.00;;;;;;5084023;28;20525;-49
2022/05/05 11:23:07;;;;;;;5.37;4.87;;;18.80;55.00;;;;;;5081815;28;20509;-49
2022/05/05 11:25:41;;;;;;;5.90;4.53;;;18.90;54.60;;;;;;5082117;28;20553;-48
2022/05/05 11:28:10;;;;;;;6.77;4.83;;;19.00;53.70;;;;;;5101500;28;21017;-47
2022/05/05 11:30:43;;;;;;;7.60;4.83;;;19.00;53.50;;;;;;5084101;28;21000;-47
2022/05/05 11:33:11;;;;;;;6.90;4.80;;;19.00;52.90;;;;;;5090281;28;20514;-48
2022/05/05 11:35:56;;;;;;;8.70;7.17;;;19.00;53.00;;;;;;5090682;28;20511;-47
2022/05/05 11:38:26;;;;;;;8.33;5.50;;;19.10;52.70;;;;;;5082719;28;20464;-46
2022/05/05 11:41:04;;;;;;;7.73;5.30;;;19.10;52.80;;;;;;5068725;28;20431;-48
2022/05/05 11:46:19;;;;;;;7.20;5.77;;;19.20;52.10;;;;;;5081960;28;20961;-49
2022/05/05 11:48:55;;;;;;;7.50;5.90;;;19.10;51.70;;;;;;5091155;28;20605;-47
2022/05/05 11:51:28;;;;;;;6.47;5.73;;;19.20;52.10;;;;;;5065314;28;20466;-49
2022/05/05 11:54:05;;;;;;;9.37;5.53;;;19.10;51.70;;;;;;5083749;28;20435;-47
2022/05/05 11:56:36;;;;;;;9.47;5.87;;;19.20;51.80;;;;;;5082388;28;20458;-47
2022/05/05 12:02:04;;;;;;;10.93;5.57;;;19.20;51.90;;;;;;5082390;28;20490;-49
2022/05/05 12:04:34;;;;;;;6.63;5.90;;;19.20;51.50;;;;;;5078393;28;20448;-47
2022/05/05 12:07:04;;;;;;;6.73;6.03;;;19.20;51.40;;;;;;5064074;28;20484;-48
2022/05/05 12:09:33;;;;;;;10.27;6.00;;;19.20;51.30;;;;;;5064242;28;20410;-47
2022/05/05 12:12:17;;;;;;;7.13;5.63;;;19.20;52.50;;;;;;5071962;28;20491;-50
2022/05/05 12:14:48;;;;;;;8.93;6.13;;;19.20;51.50;;;;;;5082890;28;20570;-49
2022/05/05 12:17:18;;;;;;;8.70;5.87;;;19.20;51.50;;;;;;5082288;28;20466;-49
2022/05/05 12:19:50;;;;;;;6.40;5.73;;;19.20;51.40;;;;;;5070554;28;20848;-49
2022/05/05 12:22:27;;;;;;;8.07;6.40;;;19.20;51.40;;;;;;5083615;28;20481;-48
2022/05/05 12:24:57;;;;;;;12.10;7.00;;;19.20;51.40;;;;;;5082203;28;20441;-48
2022/05/05 12:27:26;;;;;;;15.07;7.80;;;19.20;50.30;;;;;;5083354;28;20574;-47
2022/05/05 12:29:55;;;;;;;6.70;5.70;;;19.20;49.90;;;;;;5088984;28;20453;-47
2022/05/05 12:32:24;;;;;;;6.43;5.17;;;19.20;50.50;;;;;;5088057;28;20469;-45
2022/05/05 12:35:02;;;;;;;7.50;4.97;;;19.20;51.10;;;;;;5080030;28;20533;-47
2022/05/05 12:37:31;;;;;;;8.20;4.70;;;19.20;51.00;;;;;;5086867;28;20482;-48
2022/05/05 12:40:01;;;;;;;7.33;6.13;;;19.20;51.30;;;;;;5101670;28;21018;-45
2022/05/05 12:42:43;;;;;;;6.57;5.07;;;19.20;50.90;;;;;;5074445;28;20477;-47
2022/05/05 12:45:16;;;;;;;6.07;4.23;;;19.10;51.00;;;;;;5093371;28;20452;-47
2022/05/05 12:47:45;;;;;;;7.77;5.27;;;19.10;51.60;;;;;;5103371;28;20477;-46
2022/05/05 12:50:46;;;;;;;4.33;3.93;;;19.10;51.60;;;;;;5069761;28;20455;-47
2022/05/05 13:01:40;;;;;;;6.07;4.00;;;19.10;51.90;;;;;;5103387;28;20507;-47
2022/05/05 13:04:12;;;;;;;6.10;4.57;;;19.10;52.20;;;;;;5085578;28;20488;-47
2022/05/05 13:06:42;;;;;;;4.77;4.10;;;19.10;51.90;;;;;;5082832;28;20514;-48
2022/05/05 13:09:11;;;;;;;4.27;3.87;;;19.10;51.80;;;;;;5103016;28;20518;-47
2022/05/05 13:11:41;;;;;;;3.83;3.30;;;19.10;52.20;;;;;;5086137;28;20465;-49
2022/05/05 13:14:11;;;;;;;5.10;3.83;;;19.10;52.70;;;;;;5105544;28;20533;-45
2022/05/05 13:16:39;;;;;;;3.63;3.33;;;19.10;51.80;;;;;;5106680;28;20457;-48
2022/05/05 13:19:09;;;;;;;5.07;4.37;;;19.20;52.60;;;;;;5101452;28;20508;-47
2022/05/05 13:21:38;;;;;;;4.17;3.53;;;19.10;51.70;;;;;;5085830;28;20977;-47
2022/05/05 13:24:09;;;;;;;5.17;3.83;;;19.10;51.70;;;;;;5084922;28;20433;-48
2022/05/05 13:26:38;;;;;;;5.53;4.23;;;19.20;52.00;;;;;;5094504;28;20940;-47
2022/05/05 13:29:06;;;;;;;4.03;3.10;;;19.10;51.70;;;;;;5089352;28;20437;-47
2022/05/05 13:31:36;;;;;;;3.63;3.33;;;19.20;51.80;;;;;;5085613;28;20829;-48
2022/05/05 13:34:05;;;;;;;4.03;3.63;;;19.10;50.50;;;;;;5088808;28;20537;-46
2022/05/05 13:36:33;;;;;;;4.23;3.20;;;19.20;52.20;;;;;;5086516;28;20490;-46
2022/05/05 13:39:01;;;;;;;6.00;3.73;;;19.20;52.30;;;;;;5087067;28;20462;-46
2022/05/05 13:41:32;;;;;;;3.33;3.00;;;19.20;52.60;;;;;;5072326;28;20463;-48
2022/05/05 13:44:01;;;;;;;3.73;3.13;;;19.20;52.60;;;;;;5066157;28;20440;-48
2022/05/05 13:46:29;;;;;;;3.67;3.37;;;19.20;52.70;;;;;;5065801;28;20463;-47
2022/05/05 13:48:59;;;;;;;3.60;2.80;;;19.20;53.00;;;;;;5066227;28;20447;-48
2022/05/05 13:51:27;;;;;;;3.37;3.07;;;19.20;52.70;;;;;;5066020;28;20543;-47
2022/05/05 13:53:55;;;;;;;3.97;3.10;;;19.20;53.00;;;;;;5066170;28;20636;-46
2022/05/05 13:56:24;;;;;;;4.13;3.73;;;19.20;53.20;;;;;;5065022;28;20459;-48
2022/05/05 13:58:52;;;;;;;3.40;3.10;;;19.20;53.50;;;;;;5066487;28;20877;-47
2022/05/05 14:01:21;;;;;;;3.17;2.83;;;19.20;53.70;;;;;;5066536;28;20500;-48
2022/05/05 14:03:49;;;;;;;3.17;2.97;;;19.20;53.80;;;;;;5066737;28;20417;-47